Time;durP1;ratioP1;P1;durP2;ratioP2;P2;SDS_P1;SDS_P2;PMS_P1;PMS_P2;Temp;Humidity;BMP_temperature;BMP_pressure;BME280_temperature;BME280_humidity;BME280_pressure;Samples;Min_cycle;Max_cycle;Signal;HPM_P1;HPM_P2
2021/12/31 00:03:52;;;;;;;190.38;147.10;;;20.70;52.70;;;;;;4368890;60;21075;-34
2021/12/31 00:08:52;;;;;;;194.32;149.57;;;20.70;52.70;;;;;;4343890;60;21606;-34
2021/12/31 00:13:53;;;;;;;189.90;144.65;;;20.60;52.60;;;;;;4366645;60;21060;-35
2021/12/31 00:18:54;;;;;;;191.07;147.45;;;20.70;52.60;;;;;;4376038;60;21576;-35
2021/12/31 00:23:57;;;;;;;188.32;144.93;;;20.70;52.60;;;;;;4383896;60;21059;-36
2021/12/31 00:28:57;;;;;;;189.10;147.62;;;20.70;52.50;;;;;;4339513;60;21502;-34
2021/12/31 00:33:58;;;;;;;186.65;142.52;;;20.60;52.40;;;;;;4354081;60;21124;-35
2021/12/31 00:38:59;;;;;;;186.95;141.57;;;20.70;52.40;;;;;;4339053;64;21617;-35
2021/12/31 00:44:00;;;;;;;180.82;142.52;;;20.60;52.40;;;;;;4347808;60;21096;-32
2021/12/31 00:49:03;;;;;;;180.95;143.52;;;20.60;52.30;;;;;;4348898;60;21171;-34
2021/12/31 00:54:04;;;;;;;182.75;141.45;;;20.60;52.30;;;;;;4339057;64;21536;-34
2021/12/31 00:59:05;;;;;;;184.32;141.90;;;20.60;52.30;;;;;;4353605;60;21247;-38
2021/12/31 01:04:06;;;;;;;177.62;138.45;;;20.60;52.30;;;;;;4348509;60;21717;-33
2021/12/31 01:09:07;;;;;;;181.90;138.12;;;20.60;52.20;;;;;;4358841;60;21072;-35
2021/12/31 01:14:18;;;;;;;183.60;138.98;;;20.60;52.10;;;;;;4365324;60;22451;-28
2021/12/31 01:24:41;;;;;;;178.95;137.93;;;20.60;52.10;;;;;;4347653;60;21538;-33
2021/12/31 01:29:42;;;;;;;173.50;132.77;;;20.60;52.00;;;;;;4401256;60;21483;-36
2021/12/31 01:34:43;;;;;;;174.60;136.98;;;20.60;52.00;;;;;;4349655;60;21059;-35
2021/12/31 01:39:44;;;;;;;171.10;134.43;;;20.60;52.00;;;;;;4353533;60;21056;-31
2021/12/31 01:44:55;;;;;;;166.88;131.10;;;20.60;52.00;;;;;;4339582;60;21079;-36
2021/12/31 01:49:59;;;;;;;172.32;135.60;;;20.60;51.90;;;;;;4340604;60;21565;-35
2021/12/31 01:55:01;;;;;;;171.05;130.45;;;20.60;51.90;;;;;;4354632;60;22205;-34
2021/12/31 02:00:03;;;;;;;169.80;128.25;;;20.60;51.90;;;;;;4362127;60;21132;-35
2021/12/31 02:05:05;;;;;;;164.23;126.53;;;20.60;51.80;;;;;;4338692;61;21108;-34
2021/12/31 02:10:07;;;;;;;169.43;128.95;;;20.60;51.80;;;;;;4346328;60;21051;-36
2021/12/31 02:15:10;;;;;;;166.55;130.50;;;20.60;51.80;;;;;;4341265;60;21043;-33
2021/12/31 02:20:11;;;;;;;162.18;126.80;;;20.60;51.70;;;;;;4349687;60;21506;-36
2021/12/31 02:25:12;;;;;;;163.82;128.65;;;20.60;51.70;;;;;;4338724;61;21099;-34
2021/12/31 02:30:14;;;;;;;157.88;123.65;;;20.60;51.60;;;;;;4361510;60;21298;-36
2021/12/31 02:35:16;;;;;;;163.65;126.70;;;20.60;51.60;;;;;;4352712;60;21031;-34
2021/12/31 02:40:19;;;;;;;158.23;124.45;;;20.60;51.60;;;;;;4359973;60;21067;-34
2021/12/31 02:45:28;;;;;;;162.25;124.45;;;20.60;51.60;;;;;;4356895;60;21549;-31
2021/12/31 02:50:34;;;;;;;155.85;120.65;;;20.60;51.50;;;;;;4348594;60;21633;-35
2021/12/31 02:55:36;;;;;;;160.68;124.93;;;20.60;51.50;;;;;;4366956;60;21577;-34
2021/12/31 03:00:40;;;;;;;161.07;123.22;;;20.60;51.50;;;;;;4355203;60;21087;-35
2021/12/31 03:05:42;;;;;;;154.32;119.80;;;20.60;51.50;;;;;;4346516;60;21076;-33
2021/12/31 03:10:44;;;;;;;152.70;121.25;;;20.60;51.40;;;;;;4356553;60;21320;-33
2021/12/31 03:15:46;;;;;;;156.30;120.55;;;20.60;51.40;;;;;;4348047;60;21068;-32
2021/12/31 03:20:57;;;;;;;149.95;114.95;;;20.60;51.30;;;;;;4364491;60;21587;-34
2021/12/31 03:26:01;;;;;;;155.80;121.93;;;20.60;51.30;;;;;;4356308;60;21641;-34
2021/12/31 03:31:01;;;;;;;151.02;116.80;;;20.60;51.30;;;;;;4354004;60;21630;-34
2021/12/31 03:36:03;;;;;;;152.32;116.45;;;20.50;51.20;;;;;;4357896;60;21119;-33
2021/12/31 03:41:04;;;;;;;155.27;118.28;;;20.60;51.20;;;;;;4360814;60;21537;-34
2021/12/31 03:46:07;;;;;;;146.55;113.88;;;20.60;51.20;;;;;;4387017;60;21104;-32
2021/12/31 03:51:08;;;;;;;146.62;112.85;;;20.50;51.10;;;;;;4357197;60;21552;-34
2021/12/31 03:56:08;;;;;;;150.38;117.82;;;20.60;51.20;;;;;;4374354;60;21146;-35
2021/12/31 04:01:09;;;;;;;148.15;113.22;;;20.60;51.20;;;;;;4338565;62;21043;-34
2021/12/31 04:06:10;;;;;;;145.15;111.62;;;20.60;51.20;;;;;;4339457;60;21131;-34
2021/12/31 04:11:13;;;;;;;146.10;113.15;;;20.50;51.00;;;;;;4346717;60;21055;-34
2021/12/31 04:16:14;;;;;;;141.93;108.43;;;20.50;51.00;;;;;;4371444;60;21669;-35
2021/12/31 04:21:16;;;;;;;142.25;108.65;;;20.50;51.00;;;;;;4353457;60;21055;-29
2021/12/31 04:26:18;;;;;;;145.68;111.37;;;20.50;51.10;;;;;;4357082;60;21692;-35
2021/12/31 04:31:19;;;;;;;146.95;112.47;;;20.50;50.90;;;;;;4338773;64;21091;-36
2021/12/31 04:36:20;;;;;;;140.10;109.10;;;20.50;50.90;;;;;;4342881;60;22351;-35
2021/12/31 04:41:20;;;;;;;137.20;104.53;;;20.50;50.90;;;;;;4355724;60;21088;-36
2021/12/31 04:46:21;;;;;;;136.65;105.82;;;20.60;50.90;;;;;;4364825;60;21386;-34
2021/12/31 04:51:22;;;;;;;139.52;105.97;;;20.50;50.90;;;;;;4354178;60;21139;-35
2021/12/31 04:56:23;;;;;;;136.43;105.15;;;20.50;50.90;;;;;;4363872;60;21103;-36
2021/12/31 05:01:24;;;;;;;137.45;106.25;;;20.50;50.90;;;;;;4357146;60;21052;-34
2021/12/31 05:06:25;;;;;;;132.80;100.68;;;20.50;50.90;;;;;;4359532;60;21518;-33
2021/12/31 05:11:25;;;;;;;132.00;101.95;;;20.50;50.90;;;;;;4361333;60;21087;-33
2021/12/31 05:16:26;;;;;;;133.98;104.95;;;20.50;50.90;;;;;;4376371;60;21090;-35
2021/12/31 05:21:27;;;;;;;132.10;102.50;;;20.50;50.90;;;;;;4377785;60;21591;-33
2021/12/31 05:26:28;;;;;;;132.50;102.10;;;20.50;51.00;;;;;;4377565;60;22287;-34
2021/12/31 05:31:30;;;;;;;126.93;97.85;;;20.50;50.90;;;;;;4351634;60;21211;-33
2021/12/31 05:36:31;;;;;;;125.93;97.45;;;20.50;50.90;;;;;;4359865;60;21108;-33
2021/12/31 05:41:32;;;;;;;130.35;99.90;;;20.50;50.90;;;;;;4341886;60;21067;-34
2021/12/31 05:46:33;;;;;;;125.12;96.63;;;20.50;50.90;;;;;;4370909;60;21059;-33
2021/12/31 05:51:34;;;;;;;124.80;97.22;;;20.50;50.90;;;;;;4356599;60;21131;-32
2021/12/31 05:56:35;;;;;;;124.22;96.40;;;20.50;50.90;;;;;;4341078;60;21138;-34
2021/12/31 06:01:36;;;;;;;128.07;96.28;;;20.50;51.00;;;;;;4339278;64;21083;-35
2021/12/31 06:06:37;;;;;;;122.28;96.35;;;20.50;51.00;;;;;;4341664;60;21095;-34
2021/12/31 06:11:38;;;;;;;124.35;95.65;;;20.50;51.00;;;;;;4376280;60;21116;-35
2021/12/31 06:16:46;;;;;;;124.12;95.57;;;20.50;51.00;;;;;;4338353;64;21137;-34
2021/12/31 06:21:47;;;;;;;121.65;94.37;;;20.50;51.50;;;;;;4347316;60;21079;-37
2021/12/31 06:26:47;;;;;;;116.47;91.75;;;20.50;51.00;;;;;;4338613;60;21111;-35
2021/12/31 06:31:49;;;;;;;121.07;93.15;;;20.50;51.00;;;;;;4350875;60;21047;-34
2021/12/31 06:36:50;;;;;;;116.25;89.62;;;20.50;51.00;;;;;;4339226;60;22230;-36
2021/12/31 06:41:50;;;;;;;114.22;90.30;;;20.50;50.90;;;;;;4353250;60;21067;-36
2021/12/31 06:46:51;;;;;;;115.55;89.35;;;20.50;50.90;;;;;;4343375;60;21083;-35
2021/12/31 06:51:52;;;;;;;111.53;86.65;;;20.50;51.00;;;;;;4338912;64;21505;-35
2021/12/31 06:56:53;;;;;;;114.85;87.70;;;20.50;50.90;;;;;;4338774;64;21602;-33
2021/12/31 07:01:55;;;;;;;109.72;85.82;;;20.50;50.90;;;;;;4339133;64;21040;-29
2021/12/31 07:06:56;;;;;;;112.75;88.00;;;20.50;50.90;;;;;;4368342;60;21529;-36
2021/12/31 07:11:56;;;;;;;109.25;84.72;;;20.50;50.80;;;;;;4349366;60;21104;-35
2021/12/31 07:16:57;;;;;;;112.62;87.88;;;20.50;50.80;;;;;;4363778;60;21574;-34
2021/12/31 07:21:58;;;;;;;114.35;90.72;;;20.50;50.70;;;;;;4351466;60;22411;-36
2021/12/31 07:26:59;;;;;;;112.85;87.65;;;20.50;50.70;;;;;;4338411;64;21136;-37
2021/12/31 07:32:00;;;;;;;112.70;89.03;;;20.50;50.70;;;;;;4351721;60;21091;-35
2021/12/31 07:37:01;;;;;;;112.57;88.75;;;20.50;50.70;;;;;;4359020;60;21594;-34
2021/12/31 07:42:02;;;;;;;112.47;86.78;;;20.50;50.70;;;;;;4338608;64;21093;-29
2021/12/31 07:47:04;;;;;;;112.15;87.65;;;20.50;50.70;;;;;;4352256;60;21081;-35
2021/12/31 07:52:05;;;;;;;112.18;87.65;;;20.50;50.70;;;;;;4350370;60;21147;-34
2021/12/31 07:57:06;;;;;;;113.12;86.65;;;20.50;50.70;;;;;;4339161;60;21051;-36
2021/12/31 08:02:07;;;;;;;116.60;90.00;;;20.50;50.60;;;;;;4376065;60;21059;-31
2021/12/31 08:07:08;;;;;;;116.00;90.43;;;20.50;50.80;;;;;;4361403;60;21137;-33
2021/12/31 08:12:09;;;;;;;113.55;88.28;;;20.50;50.90;;;;;;4376602;60;21542;-35
2021/12/31 08:17:10;;;;;;;116.68;88.75;;;20.60;51.10;;;;;;4337824;64;21092;-36
2021/12/31 08:22:11;;;;;;;110.40;87.55;;;20.60;51.20;;;;;;4354317;60;21075;-35
2021/12/31 08:27:12;;;;;;;113.22;88.95;;;20.70;51.40;;;;;;4341558;60;21164;-36
2021/12/31 08:32:13;;;;;;;112.40;87.78;;;20.70;51.60;;;;;;4346845;60;21128;-34
2021/12/31 08:37:14;;;;;;;116.12;89.43;;;20.70;51.60;;;;;;4352996;60;21107;-35
2021/12/31 08:42:15;;;;;;;116.57;90.20;;;20.70;51.70;;;;;;4350882;60;21115;-33
2021/12/31 08:47:15;;;;;;;116.15;88.55;;;20.80;52.10;;;;;;4370543;60;21470;-35
2021/12/31 08:52:16;;;;;;;126.12;94.37;;;20.90;52.20;;;;;;4339171;61;21393;-35
2021/12/31 08:57:17;;;;;;;127.00;96.25;;;20.90;52.40;;;;;;4352691;60;21055;-31
2021/12/31 09:02:18;;;;;;;129.00;97.22;;;20.90;52.60;;;;;;4343381;60;21121;-33
2021/12/31 09:07:19;;;;;;;128.12;96.78;;;21.00;52.80;;;;;;4339332;61;22421;-33
2021/12/31 09:12:20;;;;;;;128.75;98.30;;;21.00;52.90;;;;;;4346946;60;21102;-31
2021/12/31 09:17:22;;;;;;;135.07;102.18;;;21.00;53.10;;;;;;4338363;64;21152;-29
2021/12/31 09:22:25;;;;;;;135.57;103.45;;;21.10;53.20;;;;;;4347149;60;21999;-30
2021/12/31 09:27:27;;;;;;;129.32;101.18;;;21.10;53.40;;;;;;4344115;60;21640;-31
2021/12/31 09:32:28;;;;;;;132.75;99.40;;;21.10;53.70;;;;;;4338143;64;21123;-34
2021/12/31 09:37:28;;;;;;;136.68;101.57;;;21.10;53.90;;;;;;4358356;60;21658;-34
2021/12/31 09:42:29;;;;;;;137.10;104.72;;;21.20;54.00;;;;;;4380307;60;21087;-33
2021/12/31 09:47:30;;;;;;;139.43;106.35;;;21.20;54.00;;;;;;4338866;60;21128;-33
2021/12/31 09:52:33;;;;;;;145.50;111.50;;;21.20;54.10;;;;;;4352563;60;21124;-31
2021/12/31 09:57:34;;;;;;;143.65;111.22;;;21.20;54.00;;;;;;4349087;60;21144;-31
2021/12/31 10:02:35;;;;;;;150.82;113.40;;;21.20;53.90;;;;;;4344930;60;21541;-36
2021/12/31 10:07:42;;;;;;;149.18;113.07;;;21.20;53.70;;;;;;4348361;60;21047;-34
2021/12/31 10:12:57;;;;;;;151.85;117.93;;;21.20;53.70;;;;;;4338027;64;21072;-35
2021/12/31 10:18:12;;;;;;;160.25;118.87;;;21.30;53.80;;;;;;4343327;60;21091;-30
2021/12/31 10:23:16;;;;;;;153.30;117.65;;;21.30;53.90;;;;;;4343647;60;21637;-33
2021/12/31 10:28:18;;;;;;;151.52;117.72;;;21.40;54.20;;;;;;4358857;60;21131;-34
2021/12/31 10:33:42;;;;;;;154.55;118.28;;;21.40;54.20;;;;;;4343333;60;21614;-34
2021/12/31 10:38:43;;;;;;;159.82;122.43;;;21.40;54.30;;;;;;4338955;64;21166;-36
2021/12/31 10:43:44;;;;;;;161.23;123.57;;;21.50;54.50;;;;;;4359487;60;21704;-33
2021/12/31 10:48:50;;;;;;;161.73;121.25;;;21.50;54.60;;;;;;4341142;60;21172;-34
2021/12/31 10:53:53;;;;;;;159.23;120.78;;;21.50;54.70;;;;;;4339309;64;21102;-34
2021/12/31 10:58:58;;;;;;;164.90;124.97;;;21.60;54.60;;;;;;4372272;60;21525;-33
2021/12/31 11:04:00;;;;;;;169.93;129.82;;;21.50;54.50;;;;;;4364742;60;21081;-33
2021/12/31 11:09:05;;;;;;;169.30;127.07;;;21.50;54.50;;;;;;4340400;60;21019;-33
2021/12/31 11:14:06;;;;;;;160.57;124.20;;;21.60;54.70;;;;;;4346536;60;21510;-34
2021/12/31 11:19:10;;;;;;;158.73;119.47;;;21.60;54.90;;;;;;4340625;60;21079;-34
2021/12/31 11:24:30;;;;;;;170.18;126.82;;;21.50;54.70;;;;;;4352026;60;21154;-33
2021/12/31 11:29:37;;;;;;;169.98;128.93;;;21.50;54.70;;;;;;4355266;60;21581;-32
2021/12/31 11:34:38;;;;;;;171.80;130.43;;;21.60;55.00;;;;;;4355613;60;21063;-30
2021/12/31 11:39:40;;;;;;;171.15;126.25;;;21.60;55.00;;;;;;4340176;60;21055;-35
2021/12/31 11:45:04;;;;;;;184.25;134.10;;;21.60;55.20;;;;;;4338040;64;21124;-35
2021/12/31 11:50:28;;;;;;;177.68;133.77;;;21.70;55.40;;;;;;4362187;60;21127;-34
2021/12/31 11:55:42;;;;;;;189.30;139.62;;;21.60;55.40;;;;;;4363809;60;21112;-36
2021/12/31 12:00:43;;;;;;;178.45;137.32;;;21.60;55.50;;;;;;4356966;60;21115;-36
2021/12/31 12:05:43;;;;;;;186.65;141.98;;;21.50;55.40;;;;;;4338064;64;21533;-35
2021/12/31 12:10:44;;;;;;;186.48;138.95;;;21.50;55.40;;;;;;4345260;60;22174;-30
2021/12/31 12:15:47;;;;;;;187.25;140.80;;;21.50;55.40;;;;;;4346227;60;21079;-37
2021/12/31 12:20:50;;;;;;;186.43;141.98;;;21.40;55.40;;;;;;4352107;60;21625;-36
2021/12/31 12:25:51;;;;;;;189.55;141.45;;;21.40;55.30;;;;;;4338102;64;21051;-35
2021/12/31 12:31:03;;;;;;;180.87;141.57;;;21.30;55.20;;;;;;4353105;60;21075;-37
2021/12/31 12:36:06;;;;;;;187.15;139.10;;;21.30;55.20;;;;;;4351796;60;21502;-36
2021/12/31 12:41:09;;;;;;;186.25;142.45;;;21.30;55.10;;;;;;4345928;60;21172;-34
2021/12/31 12:46:13;;;;;;;187.20;139.80;;;21.30;55.20;;;;;;4339923;60;21545;-35
2021/12/31 12:51:16;;;;;;;181.00;138.20;;;21.20;55.00;;;;;;4339208;60;21493;-34
2021/12/31 12:56:18;;;;;;;181.00;137.73;;;21.30;55.10;;;;;;4355237;60;21081;-33
2021/12/31 13:01:41;;;;;;;183.35;138.98;;;21.20;55.00;;;;;;4338523;64;21096;-33
2021/12/31 13:07:00;;;;;;;179.02;137.27;;;21.20;55.00;;;;;;4398569;60;21617;-36
2021/12/31 13:12:02;;;;;;;181.10;136.57;;;21.20;54.90;;;;;;4373837;60;21592;-30
2021/12/31 13:17:04;;;;;;;181.63;137.10;;;21.20;54.90;;;;;;4365992;60;21083;-35
2021/12/31 13:22:11;;;;;;;183.07;137.65;;;21.20;54.90;;;;;;4339048;64;21514;-34
2021/12/31 13:27:14;;;;;;;181.35;138.80;;;21.20;54.80;;;;;;4347857;60;21116;-34
2021/12/31 13:32:18;;;;;;;176.40;136.30;;;21.20;54.80;;;;;;4368383;60;21585;-34
2021/12/31 13:37:31;;;;;;;179.38;135.65;;;21.20;54.80;;;;;;4359672;60;21533;-34
2021/12/31 13:42:32;;;;;;;184.77;137.12;;;21.10;54.70;;;;;;4355830;60;21957;-35
2021/12/31 13:47:33;;;;;;;171.87;132.52;;;21.10;54.70;;;;;;4355738;60;21179;-33
2021/12/31 13:52:37;;;;;;;178.80;138.12;;;21.10;54.70;;;;;;4338583;64;21131;-33
2021/12/31 13:57:38;;;;;;;174.38;133.77;;;21.10;54.80;;;;;;4346917;60;21570;-37
2021/12/31 14:02:40;;;;;;;176.68;137.60;;;21.10;54.60;;;;;;4338769;60;21108;-35
2021/12/31 14:07:47;;;;;;;177.07;135.77;;;21.10;54.60;;;;;;4353357;60;21273;-38
2021/12/31 14:13:21;;;;;;;170.87;133.67;;;21.10;54.60;;;;;;4357847;60;21608;-34
2021/12/31 14:18:22;;;;;;;174.73;133.55;;;21.10;54.60;;;;;;4343885;60;21628;-32
2021/12/31 14:23:23;;;;;;;181.73;138.25;;;21.00;54.50;;;;;;4368882;60;21031;-38
2021/12/31 14:28:24;;;;;;;173.93;136.50;;;21.10;55.10;;;;;;4338716;64;21549;-37
2021/12/31 14:33:25;;;;;;;182.70;141.02;;;21.00;54.40;;;;;;4355344;60;21562;-37
2021/12/31 14:38:29;;;;;;;186.65;140.93;;;21.00;54.40;;;;;;4340940;60;21063;-36
2021/12/31 14:43:30;;;;;;;188.62;142.95;;;21.00;54.40;;;;;;4358942;60;21574;-35
2021/12/31 14:48:31;;;;;;;181.18;140.80;;;21.00;54.40;;;;;;4347040;60;21537;-36
2021/12/31 14:53:32;;;;;;;188.55;143.77;;;21.00;54.30;;;;;;4373242;60;21043;-33
2021/12/31 14:58:33;;;;;;;200.10;150.00;;;21.00;54.30;;;;;;4367533;60;21185;-32
2021/12/31 15:03:34;;;;;;;203.00;152.57;;;21.00;54.30;;;;;;4338231;64;21842;-33
2021/12/31 15:08:36;;;;;;;196.45;147.23;;;21.00;54.90;;;;;;4354975;60;21059;-33
2021/12/31 15:13:37;;;;;;;196.90;148.18;;;21.00;54.20;;;;;;4341536;60;21560;-34
2021/12/31 15:18:38;;;;;;;199.73;152.18;;;21.00;54.20;;;;;;4355542;60;21148;-33
2021/12/31 15:23:38;;;;;;;191.30;146.23;;;21.00;54.20;;;;;;4339051;64;21060;-30
2021/12/31 15:28:39;;;;;;;205.40;153.57;;;21.00;54.10;;;;;;4357355;60;21060;-33
2021/12/31 15:33:41;;;;;;;199.05;149.12;;;21.00;54.10;;;;;;4350514;60;21063;-35
2021/12/31 15:38:42;;;;;;;204.73;152.12;;;21.00;54.10;;;;;;4352011;60;21035;-34
2021/12/31 15:43:43;;;;;;;204.20;155.93;;;21.00;54.10;;;;;;4361477;60;21162;-31
2021/12/31 15:48:44;;;;;;;198.70;146.75;;;21.00;54.10;;;;;;4337857;64;21059;-34
2021/12/31 15:53:45;;;;;;;202.13;150.30;;;21.00;54.00;;;;;;4338698;64;21122;-31
2021/12/31 15:58:48;;;;;;;199.50;148.30;;;21.00;54.00;;;;;;4363702;60;21157;-33
2021/12/31 16:03:50;;;;;;;198.65;147.50;;;21.00;54.00;;;;;;4364962;60;22208;-33
2021/12/31 16:08:54;;;;;;;197.23;147.27;;;21.00;53.90;;;;;;4349582;60;21096;-35
2021/12/31 16:13:56;;;;;;;197.68;149.95;;;20.90;54.60;;;;;;4356719;60;21573;-37
2021/12/31 16:18:57;;;;;;;202.80;151.45;;;21.00;53.90;;;;;;4341594;60;21562;-35
2021/12/31 16:23:57;;;;;;;199.07;149.15;;;20.90;53.80;;;;;;4356508;60;21581;-36
2021/12/31 16:28:58;;;;;;;197.95;149.15;;;20.90;53.80;;;;;;4355957;60;21139;-35
2021/12/31 16:33:59;;;;;;;188.68;141.48;;;20.90;53.80;;;;;;4338548;64;21048;-32
2021/12/31 16:39:00;;;;;;;202.68;151.90;;;20.90;53.80;;;;;;4349061;60;21040;-33
2021/12/31 16:44:03;;;;;;;192.73;146.60;;;20.90;53.70;;;;;;4349944;60;21105;-33
2021/12/31 16:49:08;;;;;;;206.60;151.63;;;20.90;53.70;;;;;;4338754;64;21589;-35
2021/12/31 16:54:09;;;;;;;204.60;151.23;;;20.90;53.70;;;;;;4343854;60;21587;-32
2021/12/31 16:59:09;;;;;;;205.27;154.68;;;20.90;53.60;;;;;;4363291;60;21128;-29
2021/12/31 17:04:10;;;;;;;193.00;144.50;;;20.90;53.60;;;;;;4339050;60;21497;-34
2021/12/31 17:09:11;;;;;;;196.10;145.93;;;20.90;53.60;;;;;;4384245;60;21067;-32
2021/12/31 17:14:12;;;;;;;204.23;151.73;;;20.90;53.50;;;;;;4338386;61;21052;-32
2021/12/31 17:19:13;;;;;;;199.95;152.00;;;20.90;53.50;;;;;;4350017;60;21059;-33
2021/12/31 17:24:14;;;;;;;206.25;150.95;;;20.90;53.50;;;;;;4390815;60;21059;-32
2021/12/31 17:29:15;;;;;;;199.15;148.40;;;20.90;54.10;;;;;;4365040;60;21614;-32
2021/12/31 17:34:16;;;;;;;197.23;148.77;;;20.80;53.30;;;;;;4379454;60;21111;-35
2021/12/31 17:39:17;;;;;;;202.60;149.12;;;20.90;53.40;;;;;;4356406;60;21053;-37
2021/12/31 17:44:18;;;;;;;205.25;148.55;;;20.90;53.30;;;;;;4343914;60;21087;-35
2021/12/31 17:49:19;;;;;;;202.43;151.43;;;20.90;53.30;;;;;;4338847;61;21733;-36
2021/12/31 17:54:19;;;;;;;199.00;150.93;;;20.80;53.10;;;;;;4387424;60;21047;-36
2021/12/31 17:59:20;;;;;;;202.82;149.75;;;20.80;53.20;;;;;;4346032;60;21043;-36
2021/12/31 18:04:21;;;;;;;205.50;150.38;;;20.80;53.10;;;;;;4338331;61;21071;-29
2021/12/31 18:09:22;;;;;;;200.15;147.07;;;20.80;53.00;;;;;;4338388;64;21505;-35
2021/12/31 18:14:23;;;;;;;203.98;151.80;;;20.80;53.00;;;;;;4338142;64;21151;-32
2021/12/31 18:19:24;;;;;;;197.77;148.95;;;20.80;53.00;;;;;;4344065;60;21067;-35
2021/12/31 18:24:25;;;;;;;207.70;152.18;;;20.80;53.00;;;;;;4338681;61;21670;-36
2021/12/31 18:29:27;;;;;;;208.95;154.25;;;20.80;52.90;;;;;;4362781;60;21063;-36
2021/12/31 18:34:29;;;;;;;202.93;152.85;;;20.80;53.00;;;;;;4344059;60;21534;-35
2021/12/31 18:39:30;;;;;;;206.55;154.38;;;20.80;52.80;;;;;;4338815;62;21596;-34
2021/12/31 18:44:31;;;;;;;203.77;148.23;;;20.80;52.70;;;;;;4340605;60;21063;-34
2021/12/31 18:49:32;;;;;;;192.32;140.15;;;20.80;52.70;;;;;;4358007;60;21075;-35
2021/12/31 18:54:33;;;;;;;209.00;152.30;;;20.80;52.70;;;;;;4369489;60;21141;-34
2021/12/31 18:59:34;;;;;;;207.52;148.70;;;20.80;52.70;;;;;;4339439;64;21107;-33
2021/12/31 19:04:35;;;;;;;199.23;147.45;;;20.80;52.70;;;;;;4377558;60;21103;-37
2021/12/31 19:09:36;;;;;;;203.60;151.02;;;20.80;52.70;;;;;;4370365;60;21538;-36
2021/12/31 19:14:37;;;;;;;205.10;154.35;;;20.80;52.60;;;;;;4354590;60;21179;-37
2021/12/31 19:19:38;;;;;;;208.65;154.60;;;20.80;52.60;;;;;;4361178;60;21577;-34
2021/12/31 19:24:39;;;;;;;210.38;154.20;;;20.80;52.60;;;;;;4338618;64;21052;-36
2021/12/31 19:29:41;;;;;;;202.18;149.12;;;20.80;52.60;;;;;;4345264;60;21115;-37
2021/12/31 19:34:42;;;;;;;206.60;156.57;;;20.80;52.60;;;;;;4347347;60;21509;-34
2021/12/31 19:39:43;;;;;;;205.35;151.37;;;20.80;52.50;;;;;;4354920;60;21124;-36
2021/12/31 19:44:44;;;;;;;207.07;152.60;;;20.80;52.50;;;;;;4343986;60;21089;-33
2021/12/31 19:49:45;;;;;;;206.73;153.07;;;20.80;52.50;;;;;;4338920;64;21087;-36
2021/12/31 19:54:45;;;;;;;200.98;146.62;;;20.70;52.40;;;;;;4389692;60;21088;-35
2021/12/31 19:59:46;;;;;;;209.18;153.27;;;20.80;52.40;;;;;;4348806;60;21055;-35
2021/12/31 20:04:48;;;;;;;211.82;153.30;;;20.70;52.40;;;;;;4370562;60;21071;-34
2021/12/31 20:09:48;;;;;;;196.52;143.80;;;20.70;52.40;;;;;;4351189;60;21088;-34
2021/12/31 20:14:49;;;;;;;193.55;142.37;;;20.80;52.40;;;;;;4339006;64;21690;-36
2021/12/31 20:19:50;;;;;;;200.02;150.73;;;20.80;52.40;;;;;;4348809;60;21060;-36
2021/12/31 20:24:52;;;;;;;205.95;150.60;;;20.80;52.30;;;;;;4349427;60;21126;-35
2021/12/31 20:29:53;;;;;;;196.20;142.87;;;20.80;52.30;;;;;;4385127;60;21602;-32
2021/12/31 20:34:54;;;;;;;206.38;149.30;;;20.80;52.30;;;;;;4375656;60;21072;-33
2021/12/31 20:39:55;;;;;;;207.02;151.65;;;20.80;52.30;;;;;;4351437;60;21138;-32
2021/12/31 20:44:57;;;;;;;203.70;147.80;;;20.80;52.20;;;;;;4357912;60;21091;-33
2021/12/31 20:49:58;;;;;;;206.90;150.15;;;20.80;52.20;;;;;;4347402;60;21048;-34
2021/12/31 20:55:00;;;;;;;205.15;152.15;;;20.70;52.20;;;;;;4348231;60;21123;-37
2021/12/31 21:00:01;;;;;;;202.48;146.52;;;20.70;52.10;;;;;;4348792;60;21150;-32
2021/12/31 21:05:02;;;;;;;202.13;150.10;;;20.70;52.10;;;;;;4338223;64;21075;-36
2021/12/31 21:10:05;;;;;;;202.27;148.95;;;20.70;52.00;;;;;;4339854;64;21060;-35
2021/12/31 21:15:07;;;;;;;193.30;138.48;;;20.70;52.00;;;;;;4347073;60;21601;-32
2021/12/31 21:20:08;;;;;;;205.37;150.23;;;20.70;52.00;;;;;;4352947;60;21023;-36
2021/12/31 21:25:09;;;;;;;206.50;151.02;;;20.70;52.00;;;;;;4362485;60;21144;-36
2021/12/31 21:30:11;;;;;;;197.20;143.10;;;20.70;51.90;;;;;;4375599;60;21051;-34
2021/12/31 21:35:12;;;;;;;201.12;151.12;;;20.70;51.90;;;;;;4338443;64;21083;-35
2021/12/31 21:40:14;;;;;;;203.65;148.77;;;20.70;51.90;;;;;;4363511;60;21534;-33
2021/12/31 21:45:15;;;;;;;194.30;141.10;;;20.70;51.90;;;;;;4356999;60;21052;-36
2021/12/31 21:50:16;;;;;;;203.27;146.55;;;20.70;51.80;;;;;;4345696;60;21562;-35
2021/12/31 21:55:17;;;;;;;203.43;146.20;;;20.70;51.80;;;;;;4345280;60;21518;-31
2021/12/31 22:00:18;;;;;;;192.48;141.70;;;20.70;51.80;;;;;;4341631;60;21055;-36
2021/12/31 22:05:20;;;;;;;201.90;150.12;;;20.70;51.70;;;;;;4341430;60;21066;-34
2021/12/31 22:10:21;;;;;;;199.52;148.18;;;20.70;51.80;;;;;;4345568;60;21063;-36
2021/12/31 22:15:22;;;;;;;202.52;147.60;;;20.70;51.80;;;;;;4357736;60;21681;-36
2021/12/31 22:20:23;;;;;;;190.98;142.35;;;20.70;51.70;;;;;;4341842;60;21072;-36
2021/12/31 22:25:24;;;;;;;189.48;141.07;;;20.70;51.60;;;;;;4342555;60;21051;-35
2021/12/31 22:30:25;;;;;;;194.00;143.65;;;20.70;51.60;;;;;;4362726;60;21087;-31
2021/12/31 22:35:26;;;;;;;192.25;138.65;;;20.70;51.60;;;;;;4363634;60;21506;-35
2021/12/31 22:40:27;;;;;;;202.85;149.23;;;20.70;51.50;;;;;;4344278;60;21067;-32
2021/12/31 22:45:28;;;;;;;200.68;145.68;;;20.70;51.50;;;;;;4389229;60;21113;-33
2021/12/31 22:50:28;;;;;;;196.00;142.15;;;20.70;51.50;;;;;;4339138;64;21602;-31
2021/12/31 22:55:31;;;;;;;192.50;140.77;;;20.70;51.50;;;;;;4394676;60;21119;-34
2021/12/31 23:04:04;;;;;;;196.32;146.70;;;20.70;51.40;;;;;;4346309;60;21613;-32
2021/12/31 23:09:04;;;;;;;192.20;140.10;;;20.70;51.40;;;;;;4339178;61;21530;-35
2021/12/31 23:14:05;;;;;;;185.63;136.98;;;20.70;51.40;;;;;;4350614;60;21104;-34
2021/12/31 23:19:08;;;;;;;192.15;141.40;;;20.70;51.40;;;;;;4347129;60;21155;-33
2021/12/31 23:24:09;;;;;;;194.10;143.93;;;20.70;51.20;;;;;;4377695;60;21108;-34
2021/12/31 23:29:10;;;;;;;190.12;141.25;;;20.70;51.30;;;;;;4358287;60;21546;-35
2021/12/31 23:34:10;;;;;;;181.10;131.37;;;20.70;51.30;;;;;;4373713;60;21047;-31
2021/12/31 23:39:15;;;;;;;196.75;145.35;;;20.70;51.20;;;;;;4338880;64;21140;-30
2021/12/31 23:44:20;;;;;;;188.12;140.70;;;20.70;51.20;;;;;;4349818;60;21534;-36
2021/12/31 23:49:21;;;;;;;193.50;142.70;;;20.70;51.20;;;;;;4338875;64;21553;-35
2021/12/31 23:54:22;;;;;;;191.32;141.60;;;20.70;51.10;;;;;;4347256;60;21031;-35
2021/12/31 23:59:23;;;;;;;190.23;141.98;;;20.70;51.20;;;;;;4338277;64;21111;-33
